sensor_id;sensor_type;location;lat;lon;timestamp;pressure;altitude;pressure_sealevel;temperature;humidity
66703;BME280;60933;46.398;-63.798;2022-12-10T00:01:17;102341.88;;;-0.54;99.37
66703;BME280;60933;46.398;-63.798;2022-12-10T00:03:44;102324.75;;;-0.58;99.53
66703;BME280;60933;46.398;-63.798;2022-12-10T00:06:13;102341.66;;;-0.58;98.93
66703;BME280;60933;46.398;-63.798;2022-12-10T00:08:39;102341.72;;;-0.57;99.06
66703;BME280;60933;46.398;-63.798;2022-12-10T00:11:09;102334.09;;;-0.57;99.37
66703;BME280;60933;46.398;-63.798;2022-12-10T00:13:36;102335.75;;;-0.57;99.23
66703;BME280;60933;46.398;-63.798;2022-12-10T00:16:04;102342.56;;;-0.56;99.29
66703;BME280;60933;46.398;-63.798;2022-12-10T00:18:31;102329.66;;;-0.61;99.00
66703;BME280;60933;46.398;-63.798;2022-12-10T00:20:58;102348.94;;;-0.65;98.93
66703;BME280;60933;46.398;-63.798;2022-12-10T00:23:24;102343.03;;;-0.65;98.68
66703;BME280;60933;46.398;-63.798;2022-12-10T00:25:50;102302.97;;;-0.90;99.09
66703;BME280;60933;46.398;-63.798;2022-12-10T00:28:16;102361.72;;;-0.63;98.73
66703;BME280;60933;46.398;-63.798;2022-12-10T00:30:42;102359.03;;;-0.66;98.75
66703;BME280;60933;46.398;-63.798;2022-12-10T00:33:08;102363.16;;;-0.68;98.16
66703;BME280;60933;46.398;-63.798;2022-12-10T00:35:37;102377.56;;;-0.67;98.82
66703;BME280;60933;46.398;-63.798;2022-12-10T00:38:03;102364.78;;;-0.70;98.50
66703;BME280;60933;46.398;-63.798;2022-12-10T00:40:29;102358.00;;;-0.70;98.44
66703;BME280;60933;46.398;-63.798;2022-12-10T00:42:55;102372.28;;;-0.72;98.12
66703;BME280;60933;46.398;-63.798;2022-12-10T00:45:21;102360.34;;;-0.74;98.18
66703;BME280;60933;46.398;-63.798;2022-12-10T00:47:46;102375.66;;;-0.73;98.71
66703;BME280;60933;46.398;-63.798;2022-12-10T00:50:12;102379.66;;;-0.76;98.55
66703;BME280;60933;46.398;-63.798;2022-12-10T00:52:38;102389.91;;;-0.75;98.32
66703;BME280;60933;46.398;-63.798;2022-12-10T00:55:04;102358.22;;;-0.83;98.37
66703;BME280;60933;46.398;-63.798;2022-12-10T00:57:30;102377.06;;;-0.78;98.66
66703;BME280;60933;46.398;-63.798;2022-12-10T00:59:56;102379.66;;;-0.76;98.30
66703;BME280;60933;46.398;-63.798;2022-12-10T01:02:22;102395.78;;;-0.76;98.10
66703;BME280;60933;46.398;-63.798;2022-12-10T01:04:51;102392.34;;;-0.76;98.48
66703;BME280;60933;46.398;-63.798;2022-12-10T01:07:17;102411.56;;;-0.82;98.64
66703;BME280;60933;46.398;-63.798;2022-12-10T01:09:43;102394.59;;;-0.83;98.50
66703;BME280;60933;46.398;-63.798;2022-12-10T01:12:10;102406.41;;;-0.83;98.01
66703;BME280;60933;46.398;-63.798;2022-12-10T01:14:36;102398.75;;;-0.85;98.37
66703;BME280;60933;46.398;-63.798;2022-12-10T01:17:04;102391.81;;;-0.87;98.31
66703;BME280;60933;46.398;-63.798;2022-12-10T01:19:32;102399.38;;;-0.89;98.46
66703;BME280;60933;46.398;-63.798;2022-12-10T01:21:59;102408.72;;;-0.88;98.42
66703;BME280;60933;46.398;-63.798;2022-12-10T01:24:27;102413.56;;;-0.92;97.63
66703;BME280;60933;46.398;-63.798;2022-12-10T01:26:53;102397.50;;;-0.93;97.86
66703;BME280;60933;46.398;-63.798;2022-12-10T01:29:20;102395.59;;;-0.97;97.91
66703;BME280;60933;46.398;-63.798;2022-12-10T01:31:50;102431.06;;;-0.97;98.15
66703;BME280;60933;46.398;-63.798;2022-12-10T01:34:17;102391.31;;;-0.98;97.81
66703;BME280;60933;46.398;-63.798;2022-12-10T01:36:44;102402.22;;;-0.99;97.71
66703;BME280;60933;46.398;-63.798;2022-12-10T01:39:13;102397.09;;;-1.01;97.54
66703;BME280;60933;46.398;-63.798;2022-12-10T01:41:43;102408.97;;;-1.00;97.86
66703;BME280;60933;46.398;-63.798;2022-12-10T01:46:37;102425.03;;;-0.99;98.11
66703;BME280;60933;46.398;-63.798;2022-12-10T01:49:05;102384.50;;;-0.99;97.76
66703;BME280;60933;46.398;-63.798;2022-12-10T01:51:35;102402.41;;;-0.96;97.88
66703;BME280;60933;46.398;-63.798;2022-12-10T01:54:04;102397.31;;;-0.96;97.75
66703;BME280;60933;46.398;-63.798;2022-12-10T01:56:31;102404.69;;;-1.01;97.35
66703;BME280;60933;46.398;-63.798;2022-12-10T01:59:01;102423.53;;;-0.96;97.50
66703;BME280;60933;46.398;-63.798;2022-12-10T02:07:11;102422.44;;;-1.01;97.41
66703;BME280;60933;46.398;-63.798;2022-12-10T02:12:41;102458.66;;;-1.03;97.73
66703;BME280;60933;46.398;-63.798;2022-12-10T02:15:24;102398.25;;;-1.12;97.72
66703;BME280;60933;46.398;-63.798;2022-12-10T02:18:14;102432.78;;;-1.14;97.66
66703;BME280;60933;46.398;-63.798;2022-12-10T02:21:06;102432.84;;;-1.13;97.98
66703;BME280;60933;46.398;-63.798;2022-12-10T02:23:45;102440.38;;;-1.14;97.31
66703;BME280;60933;46.398;-63.798;2022-12-10T02:31:30;102446.00;;;-1.20;97.76
66703;BME280;60933;46.398;-63.798;2022-12-10T02:34:00;102451.13;;;-1.18;97.71
66703;BME280;60933;46.398;-63.798;2022-12-10T02:36:31;102446.78;;;-1.21;97.38
66703;BME280;60933;46.398;-63.798;2022-12-10T02:39:01;102455.34;;;-1.19;98.13
66703;BME280;60933;46.398;-63.798;2022-12-10T02:41:33;102467.84;;;-1.22;97.16
66703;BME280;60933;46.398;-63.798;2022-12-10T02:44:02;102466.91;;;-1.24;97.78
66703;BME280;60933;46.398;-63.798;2022-12-10T02:46:30;102454.88;;;-1.28;97.73
66703;BME280;60933;46.398;-63.798;2022-12-10T02:49:00;102467.72;;;-1.25;97.63
66703;BME280;60933;46.398;-63.798;2022-12-10T02:51:27;102473.56;;;-1.26;97.81
66703;BME280;60933;46.398;-63.798;2022-12-10T02:53:59;102482.13;;;-1.24;97.90
66703;BME280;60933;46.398;-63.798;2022-12-10T02:56:58;102477.91;;;-1.23;98.10
66703;BME280;60933;46.398;-63.798;2022-12-10T02:59:43;102492.97;;;-1.26;97.89
66703;BME280;60933;46.398;-63.798;2022-12-10T03:02:20;102465.97;;;-1.26;97.94
66703;BME280;60933;46.398;-63.798;2022-12-10T03:05:04;102470.25;;;-1.25;98.11
66703;BME280;60933;46.398;-63.798;2022-12-10T03:07:56;102488.75;;;-1.26;98.17
66703;BME280;60933;46.398;-63.798;2022-12-10T03:13:16;102496.84;;;-1.33;97.91
66703;BME280;60933;46.398;-63.798;2022-12-10T03:15:45;102489.00;;;-1.38;97.58
66703;BME280;60933;46.398;-63.798;2022-12-10T03:18:15;102493.28;;;-1.37;98.43
66703;BME280;60933;46.398;-63.798;2022-12-10T03:20:44;102511.25;;;-1.32;98.06
66703;BME280;60933;46.398;-63.798;2022-12-10T03:23:15;102494.06;;;-1.38;97.44
66703;BME280;60933;46.398;-63.798;2022-12-10T03:25:42;102515.19;;;-1.37;97.81
66703;BME280;60933;46.398;-63.798;2022-12-10T03:28:10;102503.41;;;-1.37;97.95
66703;BME280;60933;46.398;-63.798;2022-12-10T03:30:36;102512.81;;;-1.34;97.58
66703;BME280;60933;46.398;-63.798;2022-12-10T03:33:04;102521.38;;;-1.32;97.72
66703;BME280;60933;46.398;-63.798;2022-12-10T03:35:31;102506.97;;;-1.33;97.91
66703;BME280;60933;46.398;-63.798;2022-12-10T03:37:58;102510.94;;;-1.38;97.72
66703;BME280;60933;46.398;-63.798;2022-12-10T03:40:24;102528.81;;;-1.35;97.84
66703;BME280;60933;46.398;-63.798;2022-12-10T03:42:51;102511.00;;;-1.37;97.30
66703;BME280;60933;46.398;-63.798;2022-12-10T03:45:17;102516.78;;;-1.39;97.85
66703;BME280;60933;46.398;-63.798;2022-12-10T03:47:44;102529.53;;;-1.38;97.18
66703;BME280;60933;46.398;-63.798;2022-12-10T03:50:09;102501.88;;;-1.50;97.58
66703;BME280;60933;46.398;-63.798;2022-12-10T03:52:36;102523.25;;;-1.45;97.21
66703;BME280;60933;46.398;-63.798;2022-12-10T03:55:02;102544.56;;;-1.41;96.82
66703;BME280;60933;46.398;-63.798;2022-12-10T03:57:29;102540.38;;;-1.40;96.71
66703;BME280;60933;46.398;-63.798;2022-12-10T03:59:55;102536.88;;;-1.42;97.31
66703;BME280;60933;46.398;-63.798;2022-12-10T04:02:21;102527.38;;;-1.47;97.50
66703;BME280;60933;46.398;-63.798;2022-12-10T04:04:47;102516.28;;;-1.49;96.66
66703;BME280;60933;46.398;-63.798;2022-12-10T04:07:12;102523.97;;;-1.47;97.15
66703;BME280;60933;46.398;-63.798;2022-12-10T04:09:38;102517.88;;;-1.51;96.98
66703;BME280;60933;46.398;-63.798;2022-12-10T04:12:04;102533.06;;;-1.51;97.11
66703;BME280;60933;46.398;-63.798;2022-12-10T04:14:30;102534.63;;;-1.53;96.43
66703;BME280;60933;46.398;-63.798;2022-12-10T04:17:15;102524.28;;;-1.57;97.24
66703;BME280;60933;46.398;-63.798;2022-12-10T04:19:40;102535.09;;;-1.60;96.94
66703;BME280;60933;46.398;-63.798;2022-12-10T04:22:09;102537.63;;;-1.60;97.10
66703;BME280;60933;46.398;-63.798;2022-12-10T04:24:53;102527.50;;;-1.60;96.84
66703;BME280;60933;46.398;-63.798;2022-12-10T04:27:39;102547.59;;;-1.63;97.49
66703;BME280;60933;46.398;-63.798;2022-12-10T04:30:08;102540.63;;;-1.67;97.26
66703;BME280;60933;46.398;-63.798;2022-12-10T04:32:35;102533.81;;;-1.68;97.12
66703;BME280;60933;46.398;-63.798;2022-12-10T04:35:01;102535.41;;;-1.70;98.00
66703;BME280;60933;46.398;-63.798;2022-12-10T04:37:28;102542.81;;;-1.73;97.74
66703;BME280;60933;46.398;-63.798;2022-12-10T04:39:54;102541.84;;;-1.76;97.56
66703;BME280;60933;46.398;-63.798;2022-12-10T04:42:21;102546.13;;;-1.75;98.21
66703;BME280;60933;46.398;-63.798;2022-12-10T04:44:48;102545.72;;;-1.82;97.41
66703;BME280;60933;46.398;-63.798;2022-12-10T04:47:14;102555.84;;;-1.82;97.77
66703;BME280;60933;46.398;-63.798;2022-12-10T04:49:41;102559.78;;;-1.87;97.93
66703;BME280;60933;46.398;-63.798;2022-12-10T04:52:10;102557.25;;;-1.87;97.62
66703;BME280;60933;46.398;-63.798;2022-12-10T04:54:36;102550.19;;;-1.93;97.69
66703;BME280;60933;46.398;-63.798;2022-12-10T04:57:01;102555.97;;;-1.96;97.98
66703;BME280;60933;46.398;-63.798;2022-12-10T04:59:28;102554.28;;;-1.95;98.08
66703;BME280;60933;46.398;-63.798;2022-12-10T05:01:53;102564.25;;;-1.98;97.75
66703;BME280;60933;46.398;-63.798;2022-12-10T05:04:19;102553.34;;;-1.97;98.49
66703;BME280;60933;46.398;-63.798;2022-12-10T05:06:47;102541.47;;;-1.98;97.98
66703;BME280;60933;46.398;-63.798;2022-12-10T05:09:15;102549.06;;;-1.98;97.92
66703;BME280;60933;46.398;-63.798;2022-12-10T05:11:42;102546.44;;;-2.00;98.47
66703;BME280;60933;46.398;-63.798;2022-12-10T05:14:14;102561.56;;;-2.01;98.30
66703;BME280;60933;46.398;-63.798;2022-12-10T05:16:41;102561.38;;;-2.04;98.24
66703;BME280;60933;46.398;-63.798;2022-12-10T05:19:09;102557.09;;;-2.05;98.77
66703;BME280;60933;46.398;-63.798;2022-12-10T05:21:35;102562.16;;;-2.05;98.54
66703;BME280;60933;46.398;-63.798;2022-12-10T05:24:20;102563.75;;;-2.08;98.21
66703;BME280;60933;46.398;-63.798;2022-12-10T05:26:46;102587.31;;;-2.09;98.49
66703;BME280;60933;46.398;-63.798;2022-12-10T05:29:16;102567.66;;;-2.13;98.43
66703;BME280;60933;46.398;-63.798;2022-12-10T05:31:43;102565.03;;;-2.14;97.87
66703;BME280;60933;46.398;-63.798;2022-12-10T05:34:10;102584.44;;;-2.15;97.70
66703;BME280;60933;46.398;-63.798;2022-12-10T05:36:36;102581.72;;;-2.18;98.36
66703;BME280;60933;46.398;-63.798;2022-12-10T05:39:03;102607.97;;;-2.16;98.84
66703;BME280;60933;46.398;-63.798;2022-12-10T05:41:31;102591.75;;;-2.19;98.18
66703;BME280;60933;46.398;-63.798;2022-12-10T05:43:58;102599.22;;;-2.21;97.79
66703;BME280;60933;46.398;-63.798;2022-12-10T05:46:27;102599.16;;;-2.23;98.50
66703;BME280;60933;46.398;-63.798;2022-12-10T05:48:54;102594.09;;;-2.23;98.04
66703;BME280;60933;46.398;-63.798;2022-12-10T05:51:23;102612.66;;;-2.22;98.23
66703;BME280;60933;46.398;-63.798;2022-12-10T05:53:51;102607.38;;;-2.27;98.20
66703;BME280;60933;46.398;-63.798;2022-12-10T05:56:19;102577.44;;;-2.34;97.78
66703;BME280;60933;46.398;-63.798;2022-12-10T05:58:48;102629.66;;;-2.34;98.02
66703;BME280;60933;46.398;-63.798;2022-12-10T06:01:16;102626.38;;;-2.33;97.85
66703;BME280;60933;46.398;-63.798;2022-12-10T06:03:43;102609.44;;;-2.34;97.38
66703;BME280;60933;46.398;-63.798;2022-12-10T06:06:09;102625.59;;;-2.32;97.42
66703;BME280;60933;46.398;-63.798;2022-12-10T06:08:35;102603.50;;;-2.35;97.36
66703;BME280;60933;46.398;-63.798;2022-12-10T06:11:07;102628.81;;;-2.35;97.68
66703;BME280;60933;46.398;-63.798;2022-12-10T06:13:34;102648.84;;;-2.38;97.08
66703;BME280;60933;46.398;-63.798;2022-12-10T06:16:05;102644.41;;;-2.42;97.82
66703;BME280;60933;46.398;-63.798;2022-12-10T06:18:31;102619.53;;;-2.49;97.29
66703;BME280;60933;46.398;-63.798;2022-12-10T06:20:57;102654.63;;;-2.41;97.11
66703;BME280;60933;46.398;-63.798;2022-12-10T06:23:23;102646.41;;;-2.36;96.97
66703;BME280;60933;46.398;-63.798;2022-12-10T06:25:49;102653.22;;;-2.35;97.43
66703;BME280;60933;46.398;-63.798;2022-12-10T06:28:15;102633.47;;;-2.41;97.55
66703;BME280;60933;46.398;-63.798;2022-12-10T06:30:41;102642.13;;;-2.38;96.63
66703;BME280;60933;46.398;-63.798;2022-12-10T06:33:07;102648.00;;;-2.39;96.47
66703;BME280;60933;46.398;-63.798;2022-12-10T06:35:33;102642.53;;;-2.45;96.79
66703;BME280;60933;46.398;-63.798;2022-12-10T06:37:59;102673.88;;;-2.43;96.63
66703;BME280;60933;46.398;-63.798;2022-12-10T06:40:25;102663.59;;;-2.46;97.01
66703;BME280;60933;46.398;-63.798;2022-12-10T06:42:52;102661.06;;;-2.46;96.42
66703;BME280;60933;46.398;-63.798;2022-12-10T06:45:18;102650.75;;;-2.49;96.59
66703;BME280;60933;46.398;-63.798;2022-12-10T06:47:43;102671.69;;;-2.51;95.98
66703;BME280;60933;46.398;-63.798;2022-12-10T06:50:09;102649.63;;;-2.54;95.20
66703;BME280;60933;46.398;-63.798;2022-12-10T06:52:35;102654.28;;;-2.60;95.79
66703;BME280;60933;46.398;-63.798;2022-12-10T06:55:01;102649.41;;;-2.57;95.57
66703;BME280;60933;46.398;-63.798;2022-12-10T06:57:27;102680.53;;;-2.58;95.29
66703;BME280;60933;46.398;-63.798;2022-12-10T06:59:53;102671.31;;;-2.58;95.25
66703;BME280;60933;46.398;-63.798;2022-12-10T07:02:19;102661.28;;;-2.56;95.18
66703;BME280;60933;46.398;-63.798;2022-12-10T07:04:45;102676.53;;;-2.55;95.41
66703;BME280;60933;46.398;-63.798;2022-12-10T07:07:11;102671.41;;;-2.56;95.60
66703;BME280;60933;46.398;-63.798;2022-12-10T07:09:37;102675.69;;;-2.55;95.14
66703;BME280;60933;46.398;-63.798;2022-12-10T07:12:03;102682.78;;;-2.63;95.84
66703;BME280;60933;46.398;-63.798;2022-12-10T07:14:30;102682.41;;;-2.69;95.78
66703;BME280;60933;46.398;-63.798;2022-12-10T07:16:55;102700.81;;;-2.72;95.52
66703;BME280;60933;46.398;-63.798;2022-12-10T07:19:22;102687.97;;;-2.75;95.52
66703;BME280;60933;46.398;-63.798;2022-12-10T07:21:48;102683.19;;;-2.70;95.74
66703;BME280;60933;46.398;-63.798;2022-12-10T07:24:18;102699.53;;;-2.65;95.83
66703;BME280;60933;46.398;-63.798;2022-12-10T07:26:45;102695.16;;;-2.67;96.21
66703;BME280;60933;46.398;-63.798;2022-12-10T07:29:18;102712.59;;;-2.72;96.29
66703;BME280;60933;46.398;-63.798;2022-12-10T07:31:45;102702.97;;;-2.78;95.06
66703;BME280;60933;46.398;-63.798;2022-12-10T07:34:14;102710.56;;;-2.78;95.95
66703;BME280;60933;46.398;-63.798;2022-12-10T07:36:40;102718.13;;;-2.78;95.86
66703;BME280;60933;46.398;-63.798;2022-12-10T07:39:08;102716.56;;;-2.89;95.45
66703;BME280;60933;46.398;-63.798;2022-12-10T07:41:34;102709.88;;;-2.89;95.53
66703;BME280;60933;46.398;-63.798;2022-12-10T07:44:03;102694.44;;;-2.93;95.60
66703;BME280;60933;46.398;-63.798;2022-12-10T07:46:32;102714.06;;;-2.89;95.64
66703;BME280;60933;46.398;-63.798;2022-12-10T07:49:02;102722.91;;;-2.96;96.05
66703;BME280;60933;46.398;-63.798;2022-12-10T07:51:29;102716.00;;;-2.98;95.51
66703;BME280;60933;46.398;-63.798;2022-12-10T07:53:55;102728.47;;;-3.02;95.33
66703;BME280;60933;46.398;-63.798;2022-12-10T07:56:22;102724.09;;;-3.04;95.65
66703;BME280;60933;46.398;-63.798;2022-12-10T07:58:49;102745.16;;;-3.04;95.73
66703;BME280;60933;46.398;-63.798;2022-12-10T08:01:18;102737.97;;;-3.11;95.84
66703;BME280;60933;46.398;-63.798;2022-12-10T08:03:45;102747.22;;;-3.11;95.66
66703;BME280;60933;46.398;-63.798;2022-12-10T08:06:11;102740.28;;;-3.14;95.90
66703;BME280;60933;46.398;-63.798;2022-12-10T08:08:39;102738.38;;;-3.18;95.51
66703;BME280;60933;46.398;-63.798;2022-12-10T08:11:07;102746.72;;;-3.19;96.13
66703;BME280;60933;46.398;-63.798;2022-12-10T08:13:34;102733.50;;;-3.28;95.54
66703;BME280;60933;46.398;-63.798;2022-12-10T08:16:08;102761.41;;;-3.27;96.14
66703;BME280;60933;46.398;-63.798;2022-12-10T08:18:35;102756.44;;;-3.39;95.47
66703;BME280;60933;46.398;-63.798;2022-12-10T08:21:10;102742.91;;;-3.39;95.65
66703;BME280;60933;46.398;-63.798;2022-12-10T08:23:37;102769.06;;;-3.39;95.77
66703;BME280;60933;46.398;-63.798;2022-12-10T08:26:09;102758.81;;;-3.40;95.58
66703;BME280;60933;46.398;-63.798;2022-12-10T08:28:35;102747.78;;;-3.42;95.65
66703;BME280;60933;46.398;-63.798;2022-12-10T08:31:02;102750.59;;;-3.38;95.80
66703;BME280;60933;46.398;-63.798;2022-12-10T08:33:29;102757.97;;;-3.41;95.60
66703;BME280;60933;46.398;-63.798;2022-12-10T08:35:58;102760.88;;;-3.48;96.07
66703;BME280;60933;46.398;-63.798;2022-12-10T08:38:27;102771.44;;;-3.54;96.05
66703;BME280;60933;46.398;-63.798;2022-12-10T08:40:53;102766.84;;;-3.59;95.88
66703;BME280;60933;46.398;-63.798;2022-12-10T08:43:19;102776.19;;;-3.58;95.41
66703;BME280;60933;46.398;-63.798;2022-12-10T08:45:45;102789.47;;;-3.61;95.78
66703;BME280;60933;46.398;-63.798;2022-12-10T08:48:11;102772.41;;;-3.65;95.55
66703;BME280;60933;46.398;-63.798;2022-12-10T08:50:37;102782.81;;;-3.60;95.73
66703;BME280;60933;46.398;-63.798;2022-12-10T08:53:03;102790.16;;;-3.63;95.19
66703;BME280;60933;46.398;-63.798;2022-12-10T08:55:29;102771.72;;;-3.62;95.38
66703;BME280;60933;46.398;-63.798;2022-12-10T08:57:58;102795.97;;;-3.64;95.42
66703;BME280;60933;46.398;-63.798;2022-12-10T09:00:25;102777.44;;;-3.65;95.91
66703;BME280;60933;46.398;-63.798;2022-12-10T09:02:51;102783.94;;;-3.69;95.55
66703;BME280;60933;46.398;-63.798;2022-12-10T09:05:17;102780.97;;;-3.75;95.69
66703;BME280;60933;46.398;-63.798;2022-12-10T09:07:43;102778.56;;;-3.73;95.62
66703;BME280;60933;46.398;-63.798;2022-12-10T09:10:10;102796.78;;;-3.77;95.63
66703;BME280;60933;46.398;-63.798;2022-12-10T09:12:39;102780.78;;;-3.78;95.59
66703;BME280;60933;46.398;-63.798;2022-12-10T09:15:08;102791.38;;;-3.70;95.74
66703;BME280;60933;46.398;-63.798;2022-12-10T09:17:35;102783.63;;;-3.73;95.38
66703;BME280;60933;46.398;-63.798;2022-12-10T09:20:03;102784.09;;;-3.79;96.16
66703;BME280;60933;46.398;-63.798;2022-12-10T09:22:30;102787.16;;;-3.83;95.57
66703;BME280;60933;46.398;-63.798;2022-12-10T09:24:56;102793.00;;;-3.84;95.37
66703;BME280;60933;46.398;-63.798;2022-12-10T09:27:22;102796.41;;;-3.84;95.31
66703;BME280;60933;46.398;-63.798;2022-12-10T09:29:48;102797.25;;;-3.83;95.95
66703;BME280;60933;46.398;-63.798;2022-12-10T09:32:14;102801.34;;;-3.85;95.63
66703;BME280;60933;46.398;-63.798;2022-12-10T09:34:40;102806.84;;;-3.91;95.51
66703;BME280;60933;46.398;-63.798;2022-12-10T09:37:06;102803.16;;;-3.96;95.62
66703;BME280;60933;46.398;-63.798;2022-12-10T09:39:31;102822.66;;;-3.93;95.58
66703;BME280;60933;46.398;-63.798;2022-12-10T09:47:11;102824.44;;;-4.04;94.97
66703;BME280;60933;46.398;-63.798;2022-12-10T09:52:25;102836.41;;;-4.02;95.70
66703;BME280;60933;46.398;-63.798;2022-12-10T09:54:57;102836.75;;;-4.09;94.79
66703;BME280;60933;46.398;-63.798;2022-12-10T09:57:38;102836.75;;;-4.09;95.15
66703;BME280;60933;46.398;-63.798;2022-12-10T10:00:19;102852.97;;;-4.05;94.40
66703;BME280;60933;46.398;-63.798;2022-12-10T10:02:46;102868.66;;;-4.09;94.53
66703;BME280;60933;46.398;-63.798;2022-12-10T10:05:42;102860.00;;;-4.13;94.14
66703;BME280;60933;46.398;-63.798;2022-12-10T10:10:50;102864.84;;;-4.16;93.74
66703;BME280;60933;46.398;-63.798;2022-12-10T10:13:50;102886.31;;;-4.21;92.99
66703;BME280;60933;46.398;-63.798;2022-12-10T10:21:45;102880.75;;;-4.29;91.84
66703;BME280;60933;46.398;-63.798;2022-12-10T10:24:18;102895.66;;;-4.32;91.04
66703;BME280;60933;46.398;-63.798;2022-12-10T10:26:45;102894.13;;;-4.30;90.52
66703;BME280;60933;46.398;-63.798;2022-12-10T10:29:15;102902.34;;;-4.33;90.82
66703;BME280;60933;46.398;-63.798;2022-12-10T10:31:43;102911.13;;;-4.27;90.33
66703;BME280;60933;46.398;-63.798;2022-12-10T10:34:20;102917.91;;;-4.26;90.70
66703;BME280;60933;46.398;-63.798;2022-12-10T10:36:48;102901.91;;;-4.27;90.37
66703;BME280;60933;46.398;-63.798;2022-12-10T10:39:28;102912.78;;;-4.28;90.20
66703;BME280;60933;46.398;-63.798;2022-12-10T10:41:56;102912.22;;;-4.36;90.03
66703;BME280;60933;46.398;-63.798;2022-12-10T10:44:26;102916.06;;;-4.41;89.67
66703;BME280;60933;46.398;-63.798;2022-12-10T10:46:54;102906.41;;;-4.47;89.78
66703;BME280;60933;46.398;-63.798;2022-12-10T10:49:26;102903.78;;;-4.48;90.63
66703;BME280;60933;46.398;-63.798;2022-12-10T10:51:53;102921.53;;;-4.47;90.41
66703;BME280;60933;46.398;-63.798;2022-12-10T10:54:39;102925.28;;;-4.53;90.80
66703;BME280;60933;46.398;-63.798;2022-12-10T10:57:38;102905.63;;;-4.57;91.25
66703;BME280;60933;46.398;-63.798;2022-12-10T11:00:17;102924.81;;;-4.59;91.54
66703;BME280;60933;46.398;-63.798;2022-12-10T11:02:44;102930.41;;;-4.64;91.90
66703;BME280;60933;46.398;-63.798;2022-12-10T11:05:26;102927.53;;;-4.68;91.37
66703;BME280;60933;46.398;-63.798;2022-12-10T11:08:05;102923.06;;;-4.72;92.02
66703;BME280;60933;46.398;-63.798;2022-12-10T11:10:47;102941.47;;;-4.73;92.23
66703;BME280;60933;46.398;-63.798;2022-12-10T11:13:28;102932.81;;;-4.77;92.69
66703;BME280;60933;46.398;-63.798;2022-12-10T11:18:36;102946.81;;;-4.81;92.58
66703;BME280;60933;46.398;-63.798;2022-12-10T11:23:41;102965.31;;;-4.80;92.49
66703;BME280;60933;46.398;-63.798;2022-12-10T11:34:57;102959.06;;;-4.85;90.81
66703;BME280;60933;46.398;-63.798;2022-12-10T11:40:32;102986.13;;;-4.83;90.05
66703;BME280;60933;46.398;-63.798;2022-12-10T11:43:46;102974.94;;;-4.86;89.58
66703;BME280;60933;46.398;-63.798;2022-12-10T11:51:44;103002.41;;;-4.89;88.42
66703;BME280;60933;46.398;-63.798;2022-12-10T12:00:13;103024.44;;;-4.99;87.63
66703;BME280;60933;46.398;-63.798;2022-12-10T12:02:53;103026.16;;;-4.98;87.64
66703;BME280;60933;46.398;-63.798;2022-12-10T12:11:48;103032.84;;;-4.98;88.19
66703;BME280;60933;46.398;-63.798;2022-12-10T12:16:26;103025.28;;;-4.98;87.68
66703;BME280;60933;46.398;-63.798;2022-12-10T12:19:37;103031.44;;;-4.95;87.47
66703;BME280;60933;46.398;-63.798;2022-12-10T12:22:23;103043.47;;;-5.02;86.17
66703;BME280;60933;46.398;-63.798;2022-12-10T12:24:55;103034.16;;;-5.03;85.59
66703;BME280;60933;46.398;-63.798;2022-12-10T12:27:30;103044.22;;;-5.03;85.05
66703;BME280;60933;46.398;-63.798;2022-12-10T12:30:04;103050.69;;;-5.07;85.29
66703;BME280;60933;46.398;-63.798;2022-12-10T12:32:49;103056.94;;;-5.02;85.34
66703;BME280;60933;46.398;-63.798;2022-12-10T12:35:21;103065.53;;;-5.10;85.00
66703;BME280;60933;46.398;-63.798;2022-12-10T12:37:58;103046.34;;;-5.20;84.26
66703;BME280;60933;46.398;-63.798;2022-12-10T12:40:30;103061.81;;;-5.15;83.94
66703;BME280;60933;46.398;-63.798;2022-12-10T12:43:02;103071.50;;;-5.20;83.89
66703;BME280;60933;46.398;-63.798;2022-12-10T12:45:34;103047.09;;;-5.21;83.79
66703;BME280;60933;46.398;-63.798;2022-12-10T12:48:16;103068.59;;;-5.14;84.29
66703;BME280;60933;46.398;-63.798;2022-12-10T12:53:22;103060.03;;;-5.16;84.46
66703;BME280;60933;46.398;-63.798;2022-12-10T12:56:05;103072.09;;;-5.12;84.64
66703;BME280;60933;46.398;-63.798;2022-12-10T12:58:46;103075.63;;;-5.10;84.43
66703;BME280;60933;46.398;-63.798;2022-12-10T13:01:37;103079.25;;;-5.06;84.22
66703;BME280;60933;46.398;-63.798;2022-12-10T13:04:06;103081.66;;;-5.08;83.46
66703;BME280;60933;46.398;-63.798;2022-12-10T13:06:37;103078.41;;;-5.17;83.42
66703;BME280;60933;46.398;-63.798;2022-12-10T13:11:45;103086.22;;;-5.14;82.56
66703;BME280;60933;46.398;-63.798;2022-12-10T13:14:15;103095.75;;;-5.10;82.36
66703;BME280;60933;46.398;-63.798;2022-12-10T13:27:31;103088.97;;;-5.11;81.71
66703;BME280;60933;46.398;-63.798;2022-12-10T13:30:03;103076.91;;;-5.15;81.97
66703;BME280;60933;46.398;-63.798;2022-12-10T13:37:35;103118.59;;;-5.19;82.08
66703;BME280;60933;46.398;-63.798;2022-12-10T13:42:38;103109.50;;;-5.17;82.13
66703;BME280;60933;46.398;-63.798;2022-12-10T13:51:08;103110.41;;;-5.16;79.94
66703;BME280;60933;46.398;-63.798;2022-12-10T13:54:23;103134.44;;;-5.10;78.80
66703;BME280;60933;46.398;-63.798;2022-12-10T14:00:12;103135.47;;;-5.18;79.01
66703;BME280;60933;46.398;-63.798;2022-12-10T14:03:04;103139.34;;;-5.11;79.83
66703;BME280;60933;46.398;-63.798;2022-12-10T14:08:18;103145.66;;;-5.16;78.54
66703;BME280;60933;46.398;-63.798;2022-12-10T14:10:45;103155.09;;;-5.14;79.13
66703;BME280;60933;46.398;-63.798;2022-12-10T14:13:15;103163.88;;;-5.09;79.03
66703;BME280;60933;46.398;-63.798;2022-12-10T14:15:51;103152.81;;;-5.11;78.49
66703;BME280;60933;46.398;-63.798;2022-12-10T14:18:18;103173.09;;;-5.09;77.13
66703;BME280;60933;46.398;-63.798;2022-12-10T14:20:47;103159.88;;;-5.17;77.69
66703;BME280;60933;46.398;-63.798;2022-12-10T14:23:47;103156.38;;;-5.19;78.21
66703;BME280;60933;46.398;-63.798;2022-12-10T14:26:19;103153.09;;;-5.18;78.67
66703;BME280;60933;46.398;-63.798;2022-12-10T14:28:54;103145.66;;;-5.16;79.11
66703;BME280;60933;46.398;-63.798;2022-12-10T14:31:39;103160.75;;;-5.06;79.42
66703;BME280;60933;46.398;-63.798;2022-12-10T14:34:14;103154.16;;;-5.04;78.56